createdAt,value
2022-07-30T00:00:47.230Z,6.45
2022-07-30T00:05:44.190Z,6.85
2022-07-30T00:10:41.772Z,6.93
2022-07-30T00:15:39.743Z,6.60
2022-07-30T00:20:39.639Z,5.38
2022-07-30T00:25:40.395Z,5.80
2022-07-30T00:30:38.325Z,5.57
2022-07-30T00:35:39.683Z,5.10
2022-07-30T00:40:37.058Z,5.63
2022-07-30T00:45:35.294Z,5.75
2022-07-30T00:50:33.512Z,5.80
2022-07-30T00:55:34.066Z,6.40
2022-07-30T01:00:39.598Z,6.10
2022-07-30T01:05:36.646Z,6.32
2022-07-30T01:10:34.699Z,5.35
2022-07-30T01:15:32.812Z,5.57
2022-07-30T01:20:37.363Z,6.60
2022-07-30T01:30:54.711Z,6.68
2022-07-30T01:35:57.814Z,7.40
2022-07-30T01:40:57.475Z,7.43
2022-07-30T01:45:56.084Z,7.85
2022-07-30T01:50:56.382Z,6.93
2022-07-30T01:55:56.109Z,6.88
2022-07-30T02:00:58.036Z,6.15
2022-07-30T02:06:11.601Z,7.82
2022-07-30T02:11:12.534Z,7.07
2022-07-30T02:16:15.262Z,7.18
2022-07-30T02:21:16.814Z,7.07
2022-07-30T02:26:18.755Z,7.68
2022-07-30T02:31:33.981Z,7.22
2022-07-30T02:36:36.309Z,7.68
2022-07-30T02:41:38.861Z,8.82
2022-07-30T02:46:39.528Z,8.52
2022-07-30T02:52:18.721Z,7.95
2022-07-30T02:57:34.342Z,8.23
2022-07-30T03:02:33.429Z,7.78
2022-07-30T03:07:32.213Z,9.23
2022-07-30T03:12:32.376Z,9.02
2022-07-30T03:17:37.702Z,8.52
2022-07-30T03:22:40.052Z,7.75
2022-07-30T03:27:42.483Z,7.75
2022-07-30T03:32:53.510Z,9.05
2022-07-30T03:38:05.164Z,9.52
2022-07-30T03:43:18.305Z,9.15
2022-07-30T03:48:26.893Z,10.10
2022-07-30T03:53:27.219Z,9.27
2022-07-30T03:58:44.326Z,8.80
2022-07-30T04:03:42.290Z,8.15
2022-07-30T04:08:39.266Z,10.43
2022-07-30T04:13:55.192Z,10.38
2022-07-30T04:19:02.769Z,10.75
2022-07-30T04:24:03.936Z,10.35
2022-07-30T04:29:05.599Z,10.70
2022-07-30T04:34:05.844Z,10.40
2022-07-30T04:39:11.404Z,10.68
2022-07-30T04:44:09.439Z,10.18
2022-07-30T04:49:16.932Z,13.65
2022-07-30T04:54:15.357Z,13.45
2022-07-30T04:59:16.811Z,13.20
2022-07-30T05:04:15.410Z,15.32
2022-07-30T05:09:16.069Z,15.20
2022-07-30T05:14:15.333Z,14.10
2022-07-30T05:19:21.384Z,14.38
2022-07-30T05:24:19.128Z,14.32
2022-07-30T05:29:24.941Z,14.77
2022-07-30T05:34:29.589Z,14.23
2022-07-30T05:39:33.219Z,14.25
2022-07-30T05:44:46.845Z,14.55
2022-07-30T05:49:47.382Z,12.55
2022-07-30T05:54:46.089Z,10.80
2022-07-30T06:00:01.088Z,11.75
2022-07-30T06:05:19.486Z,11.13
2022-07-30T06:10:17.481Z,11.52
2022-07-30T06:15:20.542Z,11.05
2022-07-30T06:20:27.780Z,10.88
2022-07-30T06:25:38.972Z,10.35
2022-07-30T06:30:40.619Z,10.40
2022-07-30T06:35:40.395Z,11.15
2022-07-30T06:40:44.759Z,10.00
2022-07-30T06:45:48.787Z,8.65
2022-07-30T06:50:52.818Z,9.18
2022-07-30T06:56:20.095Z,9.75
2022-07-30T07:01:37.383Z,9.27
2022-07-30T07:06:35.172Z,10.33
2022-07-30T07:11:34.606Z,8.65
2022-07-30T07:16:43.202Z,8.55
2022-07-30T12:48:40.905Z,5.75
2022-07-30T16:24:00.383Z,7.25
2022-07-30T17:26:37.250Z,6.10
